sensor_id;sensor_type;location;lat;lon;timestamp;P1;durP1;ratioP1;P2;durP2;ratioP2
11453;SDS011;5783;55.174;61.310;2022-07-26T00:04:16;3.80;;;3.40;;
11453;SDS011;5783;55.174;61.310;2022-07-26T00:16:39;3.70;;;3.40;;
11453;SDS011;5783;55.174;61.310;2022-07-26T00:21:36;4.20;;;3.80;;
11453;SDS011;5783;55.174;61.310;2022-07-26T00:31:31;4.50;;;4.00;;
11453;SDS011;5783;55.174;61.310;2022-07-26T01:11:05;6.75;;;5.10;;
11453;SDS011;5783;55.174;61.310;2022-07-26T01:20:59;8.50;;;5.70;;
11453;SDS011;5783;55.174;61.310;2022-07-26T01:23:30;9.60;;;6.00;;
11453;SDS011;5783;55.174;61.310;2022-07-26T01:33:25;7.90;;;5.90;;
11453;SDS011;5783;55.174;61.310;2022-07-26T01:35:54;9.43;;;6.20;;
11453;SDS011;5783;55.174;61.310;2022-07-26T01:38:24;11.13;;;6.57;;
11453;SDS011;5783;55.174;61.310;2022-07-26T01:43:22;10.75;;;6.25;;
11453;SDS011;5783;55.174;61.310;2022-07-26T01:48:20;10.95;;;6.25;;
11453;SDS011;5783;55.174;61.310;2022-07-26T01:55:46;10.90;;;6.50;;
11453;SDS011;5783;55.174;61.310;2022-07-26T02:00:43;8.30;;;6.40;;
11453;SDS011;5783;55.174;61.310;2022-07-26T02:03:12;9.90;;;5.80;;
11453;SDS011;5783;55.174;61.310;2022-07-26T02:10:38;10.00;;;6.10;;
11453;SDS011;5783;55.174;61.310;2022-07-26T02:25:53;12.30;;;6.40;;
11453;SDS011;5783;55.174;61.310;2022-07-26T02:30:51;10.10;;;6.80;;
11453;SDS011;5783;55.174;61.310;2022-07-26T02:33:20;9.70;;;6.40;;
11453;SDS011;5783;55.174;61.310;2022-07-26T02:35:49;9.20;;;5.90;;
11453;SDS011;5783;55.174;61.310;2022-07-26T05:41:53;6.25;;;4.00;;
11453;SDS011;5783;55.174;61.310;2022-07-26T05:44:22;5.27;;;3.60;;
11453;SDS011;5783;55.174;61.310;2022-07-26T05:46:51;5.27;;;3.90;;
11453;SDS011;5783;55.174;61.310;2022-07-26T05:49:20;5.57;;;3.47;;
11453;SDS011;5783;55.174;61.310;2022-07-26T05:51:51;7.00;;;3.70;;
11453;SDS011;5783;55.174;61.310;2022-07-26T05:54:20;5.37;;;3.70;;
11453;SDS011;5783;55.174;61.310;2022-07-26T05:56:51;5.73;;;3.80;;
11453;SDS011;5783;55.174;61.310;2022-07-26T05:59:20;6.63;;;3.53;;
11453;SDS011;5783;55.174;61.310;2022-07-26T06:01:49;4.70;;;3.43;;
11453;SDS011;5783;55.174;61.310;2022-07-26T06:04:20;4.50;;;3.47;;
11453;SDS011;5783;55.174;61.310;2022-07-26T06:06:49;6.07;;;3.50;;
11453;SDS011;5783;55.174;61.310;2022-07-26T06:09:19;5.07;;;3.43;;
11453;SDS011;5783;55.174;61.310;2022-07-26T06:12:08;4.90;;;3.60;;
11453;SDS011;5783;55.174;61.310;2022-07-26T06:14:37;8.60;;;3.70;;
11453;SDS011;5783;55.174;61.310;2022-07-26T06:17:06;6.67;;;3.40;;
11453;SDS011;5783;55.174;61.310;2022-07-26T06:19:36;4.23;;;3.63;;
11453;SDS011;5783;55.174;61.310;2022-07-26T06:22:05;5.67;;;3.60;;
11453;SDS011;5783;55.174;61.310;2022-07-26T06:27:05;5.47;;;3.77;;
11453;SDS011;5783;55.174;61.310;2022-07-26T06:29:34;5.20;;;4.10;;
11453;SDS011;5783;55.174;61.310;2022-07-26T06:32:03;5.97;;;3.63;;
11453;SDS011;5783;55.174;61.310;2022-07-26T06:34:33;7.00;;;3.93;;
11453;SDS011;5783;55.174;61.310;2022-07-26T06:37:02;5.20;;;3.87;;
11453;SDS011;5783;55.174;61.310;2022-07-26T06:39:31;5.37;;;3.83;;
11453;SDS011;5783;55.174;61.310;2022-07-26T06:42:00;5.30;;;3.80;;
11453;SDS011;5783;55.174;61.310;2022-07-26T06:44:29;7.80;;;4.40;;
11453;SDS011;5783;55.174;61.310;2022-07-26T06:46:59;8.03;;;4.60;;
11453;SDS011;5783;55.174;61.310;2022-07-26T06:49:28;5.23;;;4.60;;
11453;SDS011;5783;55.174;61.310;2022-07-26T06:51:57;7.73;;;4.73;;
11453;SDS011;5783;55.174;61.310;2022-07-26T06:54:26;5.63;;;4.43;;
11453;SDS011;5783;55.174;61.310;2022-07-26T06:56:55;5.57;;;4.57;;
11453;SDS011;5783;55.174;61.310;2022-07-26T06:59:24;6.70;;;4.25;;
11453;SDS011;5783;55.174;61.310;2022-07-26T07:01:53;5.63;;;4.30;;
11453;SDS011;5783;55.174;61.310;2022-07-26T07:04:23;5.87;;;4.23;;
11453;SDS011;5783;55.174;61.310;2022-07-26T07:06:52;5.93;;;4.50;;
11453;SDS011;5783;55.174;61.310;2022-07-26T07:09:22;6.70;;;4.90;;
11453;SDS011;5783;55.174;61.310;2022-07-26T07:11:51;9.00;;;4.80;;
11453;SDS011;5783;55.174;61.310;2022-07-26T07:14:20;7.13;;;4.27;;
11453;SDS011;5783;55.174;61.310;2022-07-26T07:16:49;11.20;;;4.80;;
11453;SDS011;5783;55.174;61.310;2022-07-26T07:19:18;6.50;;;4.60;;
11453;SDS011;5783;55.174;61.310;2022-07-26T07:24:16;5.10;;;4.30;;
11453;SDS011;5783;55.174;61.310;2022-07-26T07:34:55;6.40;;;4.70;;
11453;SDS011;5783;55.174;61.310;2022-07-26T07:44:49;6.70;;;4.60;;
11453;SDS011;5783;55.174;61.310;2022-07-26T09:25:39;9.15;;;4.60;;
11453;SDS011;5783;55.174;61.310;2022-07-26T09:33:10;7.10;;;4.87;;
11453;SDS011;5783;55.174;61.310;2022-07-26T09:35:41;6.13;;;4.63;;
11453;SDS011;5783;55.174;61.310;2022-07-26T09:38:13;6.33;;;4.30;;
11453;SDS011;5783;55.174;61.310;2022-07-26T09:40:43;10.70;;;4.57;;
11453;SDS011;5783;55.174;61.310;2022-07-26T09:43:13;7.90;;;5.00;;
11453;SDS011;5783;55.174;61.310;2022-07-26T09:45:42;7.00;;;4.30;;
11453;SDS011;5783;55.174;61.310;2022-07-26T09:48:11;12.30;;;4.60;;
11453;SDS011;5783;55.174;61.310;2022-07-26T09:51:11;7.47;;;4.00;;
11453;SDS011;5783;55.174;61.310;2022-07-26T09:56:19;7.77;;;3.77;;
11453;SDS011;5783;55.174;61.310;2022-07-26T09:58:48;9.60;;;4.53;;
11453;SDS011;5783;55.174;61.310;2022-07-26T10:01:19;7.67;;;4.00;;
11453;SDS011;5783;55.174;61.310;2022-07-26T10:03:48;5.97;;;4.27;;
11453;SDS011;5783;55.174;61.310;2022-07-26T10:06:17;9.80;;;4.20;;
11453;SDS011;5783;55.174;61.310;2022-07-26T10:08:47;7.50;;;3.70;;
11453;SDS011;5783;55.174;61.310;2022-07-26T10:11:16;8.10;;;4.10;;
11453;SDS011;5783;55.174;61.310;2022-07-26T10:13:47;6.27;;;4.13;;
11453;SDS011;5783;55.174;61.310;2022-07-26T10:19:05;6.37;;;4.10;;
11453;SDS011;5783;55.174;61.310;2022-07-26T10:21:34;6.63;;;4.40;;
11453;SDS011;5783;55.174;61.310;2022-07-26T10:24:03;7.30;;;3.93;;
11453;SDS011;5783;55.174;61.310;2022-07-26T10:26:35;5.57;;;3.87;;
11453;SDS011;5783;55.174;61.310;2022-07-26T10:34:46;5.07;;;3.57;;
11453;SDS011;5783;55.174;61.310;2022-07-26T10:43:13;7.43;;;3.67;;
11453;SDS011;5783;55.174;61.310;2022-07-26T10:45:44;6.40;;;3.70;;
11453;SDS011;5783;55.174;61.310;2022-07-26T10:51:02;7.10;;;3.77;;
11453;SDS011;5783;55.174;61.310;2022-07-26T10:53:34;4.93;;;3.23;;
11453;SDS011;5783;55.174;61.310;2022-07-26T10:56:03;5.07;;;3.53;;
11453;SDS011;5783;55.174;61.310;2022-07-26T10:58:40;7.87;;;3.47;;
11453;SDS011;5783;55.174;61.310;2022-07-26T11:01:05;4.27;;;3.43;;
11453;SDS011;5783;55.174;61.310;2022-07-26T11:06:25;4.63;;;3.37;;
11453;SDS011;5783;55.174;61.310;2022-07-26T11:08:55;6.33;;;3.60;;
11453;SDS011;5783;55.174;61.310;2022-07-26T11:16:47;8.93;;;4.03;;
11453;SDS011;5783;55.174;61.310;2022-07-26T11:19:18;5.17;;;3.47;;
11453;SDS011;5783;55.174;61.310;2022-07-26T11:24:39;7.70;;;3.70;;
11453;SDS011;5783;55.174;61.310;2022-07-26T11:27:08;7.90;;;3.40;;
11453;SDS011;5783;55.174;61.310;2022-07-26T11:30:02;4.67;;;3.03;;
11453;SDS011;5783;55.174;61.310;2022-07-26T11:35:36;4.63;;;3.27;;
11453;SDS011;5783;55.174;61.310;2022-07-26T11:38:08;6.30;;;3.33;;
11453;SDS011;5783;55.174;61.310;2022-07-26T11:43:34;6.80;;;3.20;;
11453;SDS011;5783;55.174;61.310;2022-07-26T11:45:58;5.43;;;3.30;;
11453;SDS011;5783;55.174;61.310;2022-07-26T11:48:27;5.90;;;3.27;;
11453;SDS011;5783;55.174;61.310;2022-07-26T11:53:49;7.27;;;3.10;;
11453;SDS011;5783;55.174;61.310;2022-07-26T11:56:21;5.67;;;3.27;;
11453;SDS011;5783;55.174;61.310;2022-07-26T11:58:51;6.50;;;3.20;;
11453;SDS011;5783;55.174;61.310;2022-07-26T12:01:23;7.60;;;3.27;;
11453;SDS011;5783;55.174;61.310;2022-07-26T12:03:53;5.77;;;3.13;;
11453;SDS011;5783;55.174;61.310;2022-07-26T12:06:23;6.10;;;3.17;;
11453;SDS011;5783;55.174;61.310;2022-07-26T12:08:55;5.80;;;3.00;;
11453;SDS011;5783;55.174;61.310;2022-07-26T12:11:35;7.00;;;3.10;;
11453;SDS011;5783;55.174;61.310;2022-07-26T12:13:58;4.80;;;3.10;;
11453;SDS011;5783;55.174;61.310;2022-07-26T12:27:31;3.70;;;2.90;;
11453;SDS011;5783;55.174;61.310;2022-07-26T23:27:45;9.50;;;7.20;;
